createdAt,value
2022-10-17T00:04:30.413Z,99651.22
2022-10-17T00:09:32.187Z,99651.39
2022-10-17T00:14:34.671Z,99654.98
2022-10-17T00:19:36.443Z,99653.90
2022-10-17T00:24:38.196Z,99654.38
2022-10-17T00:29:40.029Z,99661.83
2022-10-17T00:34:42.285Z,99661.28
2022-10-17T00:39:44.047Z,99664.45
2022-10-17T00:44:48.687Z,99664.63
2022-10-17T00:49:52.815Z,99669.09
2022-10-17T00:54:58.646Z,99671.13
2022-10-17T01:00:04.776Z,99667.92
2022-10-17T01:05:08.400Z,99663.73
2022-10-17T01:10:10.958Z,99666.11
2022-10-17T01:15:45.340Z,99668.38
2022-10-17T01:21:02.332Z,99668.21
2022-10-17T01:26:24.100Z,99670.79
2022-10-17T01:31:34.793Z,99672.08
2022-10-17T01:36:37.103Z,99677.88
2022-10-17T01:41:42.819Z,99674.27
2022-10-17T01:46:49.817Z,99667.21
2022-10-17T01:52:01.170Z,99664.52
2022-10-17T01:57:08.038Z,99666.30
2022-10-17T02:02:14.840Z,99666.04
2022-10-17T02:07:16.718Z,99666.70
2022-10-17T02:12:37.480Z,99673.56
2022-10-17T02:17:52.670Z,99671.90
2022-10-17T02:23:22.135Z,99668.42
2022-10-17T02:28:45.424Z,99673.48
2022-10-17T02:33:55.916Z,99674.08
2022-10-17T02:39:00.702Z,99676.66
2022-10-17T02:44:04.981Z,99681.49
2022-10-17T02:49:30.043Z,99687.18
2022-10-17T02:54:41.690Z,99682.08
2022-10-17T02:59:45.760Z,99680.10
2022-10-17T03:04:47.874Z,99687.08
2022-10-17T03:09:51.079Z,99695.55
2022-10-17T03:14:53.098Z,99695.33
2022-10-17T03:19:55.200Z,99698.23
2022-10-17T03:24:57.119Z,99703.38
2022-10-17T03:29:59.182Z,99708.90
2022-10-17T03:35:03.118Z,99708.54
2022-10-17T03:40:05.547Z,99710.41
2022-10-17T03:45:08.381Z,99709.39
2022-10-17T03:50:10.775Z,99708.22
2022-10-17T03:55:13.370Z,99713.84
2022-10-17T04:00:15.766Z,99716.36
2022-10-17T04:05:17.510Z,99722.09
2022-10-17T04:10:19.563Z,99727.20
2022-10-17T04:15:22.347Z,99726.34
2022-10-17T04:20:24.383Z,99728.10
2022-10-17T04:25:26.193Z,99734.25
2022-10-17T04:30:29.013Z,99732.58
2022-10-17T04:35:30.861Z,99734.81
2022-10-17T04:40:36.955Z,99734.00
2022-10-17T04:45:39.019Z,99734.70
2022-10-17T04:50:41.388Z,99729.23
2022-10-17T04:56:07.324Z,99728.16
2022-10-17T05:01:20.760Z,99732.92
2022-10-17T05:06:29.503Z,99734.85
2022-10-17T05:12:10.476Z,99738.11
2022-10-17T05:17:14.683Z,99737.05
2022-10-17T05:22:16.576Z,99745.41
2022-10-17T05:27:18.613Z,99750.48
2022-10-17T05:32:20.605Z,99758.33
2022-10-17T05:37:23.114Z,99760.95
2022-10-17T05:42:26.857Z,99768.47
2022-10-17T05:47:29.329Z,99770.36
2022-10-17T05:52:31.695Z,99772.13
2022-10-17T05:57:40.587Z,99776.98
2022-10-17T06:02:46.900Z,99780.30
2022-10-17T06:07:52.554Z,99787.11
2022-10-17T06:12:56.754Z,99793.65
2022-10-17T06:17:58.893Z,99791.77
2022-10-17T06:23:00.838Z,99796.69
2022-10-17T06:28:32.544Z,99801.28
2022-10-17T06:33:34.965Z,99806.13
2022-10-17T06:38:37.808Z,99810.17
2022-10-17T06:43:48.065Z,99821.54
2022-10-17T06:49:10.004Z,99824.67
2022-10-17T06:54:17.453Z,99829.04
2022-10-17T06:59:42.561Z,99835.86
2022-10-17T07:04:48.101Z,99842.27
2022-10-17T07:09:51.490Z,99848.02
2022-10-17T07:14:54.813Z,99852.90
2022-10-17T07:19:57.555Z,99860.20
2022-10-17T07:24:59.776Z,99853.38
2022-10-17T07:30:06.242Z,99858.77
2022-10-17T07:35:14.648Z,99864.77
2022-10-17T07:40:16.731Z,99869.61
2022-10-17T07:45:19.163Z,99870.23
2022-10-17T07:50:21.987Z,99874.23
2022-10-17T07:55:23.719Z,99868.48
2022-10-17T08:00:25.424Z,99865.48
2022-10-17T08:05:27.534Z,99868.27
2022-10-17T08:10:29.882Z,99873.76
2022-10-17T08:15:32.171Z,99869.52
2022-10-17T08:20:34.407Z,99873.84
2022-10-17T08:25:39.909Z,99875.77
2022-10-17T08:30:41.723Z,99881.21
2022-10-17T08:35:43.453Z,99887.55
2022-10-17T08:40:49.568Z,99890.98
2022-10-17T08:46:03.723Z,99897.02
2022-10-17T08:51:29.639Z,99896.52
2022-10-17T08:56:49.895Z,99898.98
2022-10-17T09:02:15.507Z,99896.38
2022-10-17T09:07:37.474Z,99893.77
2022-10-17T09:12:50.093Z,99886.14
2022-10-17T09:18:22.043Z,99884.17
2022-10-17T09:23:30.635Z,99884.98
2022-10-17T09:28:38.795Z,99884.23
2022-10-17T09:33:54.309Z,99883.95
2022-10-17T09:39:12.966Z,99888.30
2022-10-17T09:44:22.488Z,99888.02
2022-10-17T09:49:33.280Z,99890.13
2022-10-17T09:54:50.254Z,99892.34
2022-10-17T10:00:06.969Z,99885.30
2022-10-17T10:05:20.177Z,99882.84
2022-10-17T10:10:28.754Z,99886.41
2022-10-17T10:15:34.038Z,99889.27
2022-10-17T10:20:41.854Z,99892.69
2022-10-17T10:26:37.209Z,99891.24
2022-10-17T10:31:40.351Z,99889.05
2022-10-17T10:36:45.218Z,99889.02
2022-10-17T10:41:50.110Z,99883.35
2022-10-17T10:47:29.157Z,99883.65
2022-10-17T10:52:39.012Z,99877.63
2022-10-17T10:57:44.318Z,99872.20
2022-10-17T11:03:01.693Z,99872.21
2022-10-17T11:08:34.714Z,99869.45
2022-10-17T11:13:42.632Z,99869.77
2022-10-17T11:19:01.747Z,99872.67
2022-10-17T11:24:21.759Z,99866.55
2022-10-17T11:29:29.417Z,99866.52
2022-10-17T11:34:36.481Z,99871.96
2022-10-17T11:44:50.701Z,99860.66
2022-10-17T11:51:59.705Z,99859.88
2022-10-17T11:55:24.775Z,99856.39
2022-10-17T12:00:29.512Z,99854.84
2022-10-17T12:05:59.305Z,99850.44
2022-10-17T12:11:08.482Z,99851.15
2022-10-17T12:16:19.824Z,99852.90
2022-10-17T12:21:22.493Z,99848.10
2022-10-17T12:26:27.691Z,99842.69
2022-10-17T12:31:33.925Z,99836.45
2022-10-17T12:36:38.039Z,99836.36
2022-10-17T12:41:39.799Z,99833.77
2022-10-17T12:46:42.400Z,99831.96
2022-10-17T12:52:06.383Z,99832.27
2022-10-17T12:57:43.779Z,99828.27
2022-10-17T13:02:46.394Z,99833.59
2022-10-17T13:07:49.616Z,99830.87
2022-10-17T13:12:59.626Z,99829.23
2022-10-17T13:18:02.170Z,99832.80
2022-10-17T13:23:04.197Z,99827.65
2022-10-17T13:28:12.793Z,99830.38
2022-10-17T13:33:38.985Z,99825.01
2022-10-17T13:38:42.697Z,99818.83
2022-10-17T13:43:44.939Z,99816.53
2022-10-17T13:48:46.791Z,99812.45
2022-10-17T13:53:48.572Z,99813.39
2022-10-17T13:58:53.486Z,99812.39
2022-10-17T14:04:07.645Z,99809.92
2022-10-17T14:09:30.217Z,99812.77
2022-10-17T14:14:46.078Z,99810.05
2022-10-17T14:20:14.180Z,99809.98
2022-10-17T14:25:37.493Z,99803.16
2022-10-17T14:30:56.141Z,99807.40
2022-10-17T14:36:01.396Z,99806.86
2022-10-17T14:46:36.810Z,99812.82
2022-10-17T14:51:50.386Z,99815.10
2022-10-17T14:56:59.296Z,99813.59
2022-10-17T15:02:01.011Z,99814.66
2022-10-17T15:07:02.804Z,99815.15
2022-10-17T15:12:11.665Z,99808.48
2022-10-17T15:17:20.832Z,99812.16
2022-10-17T15:22:23.991Z,99803.70
2022-10-17T15:27:26.519Z,99797.70
2022-10-17T15:32:28.333Z,99795.95
2022-10-17T15:37:33.902Z,99798.70
2022-10-17T15:42:35.721Z,99798.88
2022-10-17T15:47:38.687Z,99801.02
2022-10-17T15:52:41.529Z,99802.15
2022-10-17T15:57:45.335Z,99797.61
2022-10-17T16:02:47.826Z,99795.76
2022-10-17T16:07:49.769Z,99802.41
2022-10-17T16:12:51.610Z,99804.42
2022-10-17T16:17:55.968Z,99806.92
2022-10-17T16:23:00.599Z,99809.44
2022-10-17T16:28:02.375Z,99817.67
2022-10-17T16:33:04.212Z,99814.86
2022-10-17T16:38:07.753Z,99819.30
2022-10-17T16:43:13.016Z,99821.19
2022-10-17T16:48:14.826Z,99817.54
2022-10-17T16:53:16.525Z,99819.23
2022-10-17T16:58:18.463Z,99818.55
2022-10-17T17:03:20.262Z,99816.23
2022-10-17T17:08:22.051Z,99817.00
2022-10-17T17:13:23.855Z,99815.06
2022-10-17T17:18:25.676Z,99816.36
2022-10-17T17:23:28.373Z,99806.17
2022-10-17T17:28:32.126Z,99804.23
2022-10-17T17:33:33.899Z,99803.01
2022-10-17T17:38:36.836Z,99806.03
2022-10-17T17:43:38.601Z,99807.54
2022-10-17T17:48:41.602Z,99805.80
2022-10-17T17:53:43.922Z,99801.74
2022-10-17T17:58:47.740Z,99805.80
2022-10-17T18:03:51.173Z,99807.80
2022-10-17T18:08:57.786Z,99806.54
2022-10-17T18:14:02.017Z,99811.54
2022-10-17T18:19:06.635Z,99813.58
2022-10-17T18:24:08.811Z,99814.03
2022-10-17T18:29:13.042Z,99806.86
2022-10-17T18:34:14.917Z,99807.60
2022-10-17T18:39:17.562Z,99804.27
2022-10-17T18:44:19.540Z,99807.16
2022-10-17T18:49:23.241Z,99805.64
2022-10-17T18:54:25.045Z,99805.83
2022-10-17T18:59:26.902Z,99808.00
2022-10-17T19:04:28.644Z,99810.42
2022-10-17T19:09:30.481Z,99812.22
2022-10-17T19:14:32.396Z,99808.82
2022-10-17T19:19:34.235Z,99805.71
2022-10-17T19:24:35.995Z,99804.82
2022-10-17T19:29:37.929Z,99798.33
2022-10-17T19:34:39.711Z,99803.92
2022-10-17T19:39:41.466Z,99799.55
2022-10-17T19:44:43.312Z,99800.09
2022-10-17T19:49:49.756Z,99801.29
2022-10-17T19:54:51.912Z,99800.78
2022-10-17T19:59:55.967Z,99800.92
2022-10-17T20:05:13.935Z,99806.32
2022-10-17T20:10:20.698Z,99801.36
2022-10-17T20:15:22.501Z,99800.33
2022-10-17T20:20:24.874Z,99803.23
2022-10-17T20:25:26.958Z,99796.98
2022-10-17T20:30:28.815Z,99792.48
2022-10-17T20:35:30.604Z,99793.73
2022-10-17T20:40:35.816Z,99792.40
2022-10-17T20:45:50.994Z,99785.48
2022-10-17T20:50:54.276Z,99792.05
2022-10-17T20:56:04.842Z,99792.38
2022-10-17T21:01:09.002Z,99790.39
2022-10-17T21:06:11.467Z,99791.39
2022-10-17T21:11:24.657Z,99793.08
2022-10-17T21:16:30.697Z,99792.34
2022-10-17T21:21:35.041Z,99796.00
2022-10-17T21:26:38.097Z,99792.69
2022-10-17T21:31:42.640Z,99783.61
2022-10-17T21:36:45.215Z,99783.30
2022-10-17T21:41:47.012Z,99784.16
2022-10-17T21:46:49.819Z,99782.88
2022-10-17T21:51:52.656Z,99782.88
2022-10-17T21:56:54.297Z,99776.33
2022-10-17T22:01:56.032Z,99771.39
2022-10-17T22:06:57.709Z,99772.48
2022-10-17T22:11:59.351Z,99771.61
2022-10-17T22:17:01.632Z,99768.28
2022-10-17T22:22:03.247Z,99766.79
2022-10-17T22:27:04.916Z,99767.76
2022-10-17T22:32:06.563Z,99768.29
2022-10-17T22:37:08.215Z,99760.45
2022-10-17T22:42:09.912Z,99761.58
2022-10-17T22:47:11.597Z,99758.73
2022-10-17T22:52:13.285Z,99763.29
2022-10-17T22:57:15.153Z,99765.36
2022-10-17T23:02:16.830Z,99764.02
2022-10-17T23:07:18.510Z,99760.67
2022-10-17T23:12:23.824Z,99757.40
2022-10-17T23:17:25.519Z,99757.42
2022-10-17T23:22:27.209Z,99755.05
2022-10-17T23:32:36.218Z,99745.98
2022-10-17T23:37:37.964Z,99746.40
2022-10-17T23:42:39.656Z,99745.28
2022-10-17T23:47:46.234Z,99749.79
2022-10-17T23:52:47.966Z,99756.11
2022-10-17T23:57:49.596Z,99758.57
